Lodi, WI

6:29 PM CST en Enero 31, 2015 (GMT -0600)
APRSWXNET Lodi WI US | Change Station
CLOSE
Current Station
Estación meteorológica personal
Location: Lodi, WI
Altura: 877 ft
Estaciones meteorológicas cercanas
Aviso en curso: Winter Weather Advisory

Alt 877 ft 43.32 °N, 89.54 °W | Updated 29 minutes ago

Nublado
Nublado
31 ° F
Sensación térmica 31 ° F
N
2
Viento Variable Viento desde Este
Gusts 4.0 mph

Hoy
Alta -- | Baja -- ° F
--% Posibilidad de precipitaciones
Ayer
Alta -- | Baja -- ° F
Precip. -- pul
7:15 AM 5:08 PM
Gibosa creciente, 92% visible
Presión 30.16 pul
Visibilidad 10.0 Millas
Nubes Nublado 2100 ft
Vientos helados 31 ° F
Punto de rocío 25 ° F
Humedad 77%
Precipitaciones 0.00 pul
Espesor de la nieve No disponible.
UV 0 de una escala de 12
Polen .10 de una escala de 12
Calidad del aire No disponible.
Flu Activity No disponible.
METAR KC29 010015Z AUTO 05006KT 10SM OVC021 00/M04 A3016 RMK AO1 T00031036

More Conditions Fewer Conditions

Presión 30.16 pul
Visibilidad 10.0 Millas
Nubes Nublado 2100 ft
Vientos helados 31 ° F
Punto de rocío 25 ° F
Humedad 77%
Precipitaciones 0.00 pul
Espesor de la nieve No disponible.
UV 0 de una escala de 12
Polen .10 de una escala de 12
Calidad del aire No disponible.
Flu Activity No disponible.
METAR KC29 010015Z AUTO 05006KT 10SM OVC021 00/M04 A3016 RMK AO1 T00031036

More Conditions Fewer Conditions

10-Day Weather Forecast

Almanac

Astronomía

Jan. 31, 2015 Salida Puesta
Hora real
Crepúsculo civil
Crepúsculo náutico
Crepúsculo astronómico
Luna
Horas de luz
Horas de luz
Tomorrow will be .
, % of the Moon is Illuminated

Extremos de hoy

Máximos del estado Bajos del estado

Community

WunderPhotos

Upload Photos

1,792,255 ¡fotos cargadas!

WunderBlogs® & News

Nearby

Calidad del aire

  Calidad del aire Índice AQ Contaminante
Not available.

Grosos de nieve

Estación Profundido Altura

Actividad de terremotos

Ciudad Distance Mag. Tiempo y dato
Magnitud mínima muestra es 2,5.

Temperaturas de aguas costeras

Lugar Temperatura

Estaciones meteorológicas cercanas